sensor_id;sensor_type;location;lat;lon;timestamp;P1;durP1;ratioP1;P2;durP2;ratioP2
51527;SDS011;37612;51.768;21.590;2022-12-29T00:02:34;16.40;;;8.10;;
51527;SDS011;37612;51.768;21.590;2022-12-29T00:06:37;15.30;;;7.30;;
51527;SDS011;37612;51.768;21.590;2022-12-29T00:10:41;16.20;;;7.70;;
51527;SDS011;37612;51.768;21.590;2022-12-29T00:14:48;18.30;;;7.90;;
51527;SDS011;37612;51.768;21.590;2022-12-29T00:19:08;16.30;;;7.30;;
51527;SDS011;37612;51.768;21.590;2022-12-29T00:23:46;17.60;;;8.50;;
51527;SDS011;37612;51.768;21.590;2022-12-29T00:28:08;14.60;;;7.30;;
51527;SDS011;37612;51.768;21.590;2022-12-29T00:32:43;17.00;;;8.00;;
51527;SDS011;37612;51.768;21.590;2022-12-29T00:37:32;22.60;;;8.70;;
51527;SDS011;37612;51.768;21.590;2022-12-29T00:42:25;19.50;;;8.30;;
51527;SDS011;37612;51.768;21.590;2022-12-29T00:46:55;14.90;;;8.30;;
51527;SDS011;37612;51.768;21.590;2022-12-29T00:50:56;17.90;;;6.50;;
51527;SDS011;37612;51.768;21.590;2022-12-29T00:55:05;13.10;;;7.20;;
51527;SDS011;37612;51.768;21.590;2022-12-29T00:59:07;20.20;;;7.50;;
51527;SDS011;37612;51.768;21.590;2022-12-29T01:03:12;17.90;;;8.40;;
51527;SDS011;37612;51.768;21.590;2022-12-29T01:07:14;12.10;;;6.20;;
51527;SDS011;37612;51.768;21.590;2022-12-29T01:11:18;9.40;;;4.90;;
51527;SDS011;37612;51.768;21.590;2022-12-29T01:15:20;16.50;;;8.10;;
51527;SDS011;37612;51.768;21.590;2022-12-29T01:19:21;15.10;;;8.30;;
51527;SDS011;37612;51.768;21.590;2022-12-29T01:23:24;14.90;;;6.80;;
51527;SDS011;37612;51.768;21.590;2022-12-29T01:27:25;15.30;;;7.80;;
51527;SDS011;37612;51.768;21.590;2022-12-29T01:31:27;16.50;;;8.30;;
51527;SDS011;37612;51.768;21.590;2022-12-29T01:35:32;16.00;;;8.30;;
51527;SDS011;37612;51.768;21.590;2022-12-29T01:39:38;14.30;;;7.10;;
51527;SDS011;37612;51.768;21.590;2022-12-29T01:43:53;15.60;;;6.40;;
51527;SDS011;37612;51.768;21.590;2022-12-29T01:47:59;15.80;;;6.30;;
51527;SDS011;37612;51.768;21.590;2022-12-29T01:52:22;17.50;;;6.70;;
51527;SDS011;37612;51.768;21.590;2022-12-29T01:56:50;14.40;;;6.80;;
51527;SDS011;37612;51.768;21.590;2022-12-29T02:00:54;18.70;;;6.70;;
51527;SDS011;37612;51.768;21.590;2022-12-29T02:04:57;15.60;;;6.30;;
51527;SDS011;37612;51.768;21.590;2022-12-29T02:09:04;17.10;;;6.00;;
51527;SDS011;37612;51.768;21.590;2022-12-29T02:13:05;13.90;;;7.20;;
51527;SDS011;37612;51.768;21.590;2022-12-29T02:26:18;15.10;;;6.80;;
51527;SDS011;37612;51.768;21.590;2022-12-29T02:38:59;14.10;;;6.90;;
51527;SDS011;37612;51.768;21.590;2022-12-29T02:43:26;13.30;;;6.10;;
51527;SDS011;37612;51.768;21.590;2022-12-29T02:53:24;14.20;;;6.30;;
51527;SDS011;37612;51.768;21.590;2022-12-29T03:14:29;17.00;;;7.00;;
51527;SDS011;37612;51.768;21.590;2022-12-29T03:19:00;15.40;;;6.60;;
51527;SDS011;37612;51.768;21.590;2022-12-29T03:23:07;11.70;;;5.20;;
51527;SDS011;37612;51.768;21.590;2022-12-29T03:27:12;12.30;;;5.70;;
51527;SDS011;37612;51.768;21.590;2022-12-29T03:31:17;15.50;;;7.10;;
51527;SDS011;37612;51.768;21.590;2022-12-29T03:35:22;11.60;;;6.30;;
51527;SDS011;37612;51.768;21.590;2022-12-29T03:39:28;16.20;;;7.00;;
51527;SDS011;37612;51.768;21.590;2022-12-29T03:43:29;12.60;;;5.50;;
51527;SDS011;37612;51.768;21.590;2022-12-29T03:47:31;14.70;;;6.50;;
51527;SDS011;37612;51.768;21.590;2022-12-29T03:51:32;16.20;;;7.10;;
51527;SDS011;37612;51.768;21.590;2022-12-29T03:55:35;19.60;;;6.80;;
51527;SDS011;37612;51.768;21.590;2022-12-29T03:59:36;15.90;;;6.20;;
51527;SDS011;37612;51.768;21.590;2022-12-29T04:03:37;14.40;;;6.50;;
51527;SDS011;37612;51.768;21.590;2022-12-29T04:07:39;17.70;;;6.50;;
51527;SDS011;37612;51.768;21.590;2022-12-29T04:11:40;16.90;;;7.10;;
51527;SDS011;37612;51.768;21.590;2022-12-29T04:15:42;15.00;;;6.70;;
51527;SDS011;37612;51.768;21.590;2022-12-29T04:19:46;20.90;;;8.20;;
51527;SDS011;37612;51.768;21.590;2022-12-29T04:23:48;15.10;;;6.30;;
51527;SDS011;37612;51.768;21.590;2022-12-29T04:27:50;14.20;;;6.70;;
51527;SDS011;37612;51.768;21.590;2022-12-29T04:31:51;16.00;;;6.30;;
51527;SDS011;37612;51.768;21.590;2022-12-29T04:35:52;14.60;;;6.40;;
51527;SDS011;37612;51.768;21.590;2022-12-29T04:39:55;15.40;;;6.40;;
51527;SDS011;37612;51.768;21.590;2022-12-29T04:43:56;11.90;;;6.50;;
51527;SDS011;37612;51.768;21.590;2022-12-29T04:47:58;15.70;;;6.40;;
51527;SDS011;37612;51.768;21.590;2022-12-29T04:51:59;19.20;;;5.50;;
51527;SDS011;37612;51.768;21.590;2022-12-29T04:56:00;14.10;;;5.60;;
51527;SDS011;37612;51.768;21.590;2022-12-29T05:00:01;12.40;;;5.50;;
51527;SDS011;37612;51.768;21.590;2022-12-29T05:04:03;13.40;;;6.00;;
51527;SDS011;37612;51.768;21.590;2022-12-29T05:08:05;9.30;;;5.30;;
51527;SDS011;37612;51.768;21.590;2022-12-29T05:12:06;10.40;;;4.80;;
51527;SDS011;37612;51.768;21.590;2022-12-29T05:16:08;12.60;;;6.00;;
51527;SDS011;37612;51.768;21.590;2022-12-29T05:20:10;10.70;;;5.10;;
51527;SDS011;37612;51.768;21.590;2022-12-29T05:24:12;11.90;;;5.20;;
51527;SDS011;37612;51.768;21.590;2022-12-29T05:28:13;11.60;;;5.20;;
51527;SDS011;37612;51.768;21.590;2022-12-29T05:32:14;9.90;;;5.30;;
51527;SDS011;37612;51.768;21.590;2022-12-29T05:36:16;11.40;;;4.70;;
51527;SDS011;37612;51.768;21.590;2022-12-29T05:40:17;8.10;;;4.70;;
51527;SDS011;37612;51.768;21.590;2022-12-29T05:44:18;8.70;;;4.30;;
51527;SDS011;37612;51.768;21.590;2022-12-29T05:48:19;10.00;;;5.00;;
51527;SDS011;37612;51.768;21.590;2022-12-29T05:52:20;10.60;;;5.30;;
51527;SDS011;37612;51.768;21.590;2022-12-29T05:56:22;8.50;;;4.10;;
51527;SDS011;37612;51.768;21.590;2022-12-29T06:00:23;9.50;;;5.50;;
51527;SDS011;37612;51.768;21.590;2022-12-29T06:04:24;15.20;;;6.10;;
51527;SDS011;37612;51.768;21.590;2022-12-29T06:08:27;8.10;;;4.60;;
51527;SDS011;37612;51.768;21.590;2022-12-29T06:12:28;8.40;;;4.80;;
51527;SDS011;37612;51.768;21.590;2022-12-29T06:16:29;6.50;;;4.70;;
51527;SDS011;37612;51.768;21.590;2022-12-29T06:20:30;8.00;;;5.20;;
51527;SDS011;37612;51.768;21.590;2022-12-29T06:24:31;8.40;;;4.90;;
51527;SDS011;37612;51.768;21.590;2022-12-29T06:28:33;8.20;;;4.40;;
51527;SDS011;37612;51.768;21.590;2022-12-29T06:32:34;8.10;;;4.50;;
51527;SDS011;37612;51.768;21.590;2022-12-29T06:36:35;11.40;;;6.30;;
51527;SDS011;37612;51.768;21.590;2022-12-29T06:40:36;10.10;;;5.50;;
51527;SDS011;37612;51.768;21.590;2022-12-29T06:44:37;10.20;;;6.10;;
51527;SDS011;37612;51.768;21.590;2022-12-29T06:48:39;7.60;;;4.20;;
51527;SDS011;37612;51.768;21.590;2022-12-29T06:52:42;9.10;;;5.20;;
51527;SDS011;37612;51.768;21.590;2022-12-29T06:56:45;11.90;;;8.10;;
51527;SDS011;37612;51.768;21.590;2022-12-29T07:00:46;22.20;;;12.40;;
51527;SDS011;37612;51.768;21.590;2022-12-29T07:04:48;6.60;;;3.70;;
51527;SDS011;37612;51.768;21.590;2022-12-29T07:08:49;8.90;;;4.80;;
51527;SDS011;37612;51.768;21.590;2022-12-29T07:12:50;9.80;;;4.00;;
51527;SDS011;37612;51.768;21.590;2022-12-29T07:16:52;11.90;;;4.70;;
51527;SDS011;37612;51.768;21.590;2022-12-29T07:20:53;10.70;;;5.10;;
51527;SDS011;37612;51.768;21.590;2022-12-29T07:24:56;8.90;;;4.70;;
51527;SDS011;37612;51.768;21.590;2022-12-29T07:29:00;9.20;;;4.70;;
51527;SDS011;37612;51.768;21.590;2022-12-29T07:33:03;10.40;;;5.20;;
51527;SDS011;37612;51.768;21.590;2022-12-29T07:37:07;9.40;;;3.60;;
51527;SDS011;37612;51.768;21.590;2022-12-29T07:41:08;11.40;;;4.60;;
51527;SDS011;37612;51.768;21.590;2022-12-29T07:45:09;7.20;;;3.90;;
51527;SDS011;37612;51.768;21.590;2022-12-29T07:49:17;8.60;;;4.50;;
51527;SDS011;37612;51.768;21.590;2022-12-29T07:53:19;8.00;;;3.80;;
51527;SDS011;37612;51.768;21.590;2022-12-29T07:57:20;8.30;;;4.40;;
51527;SDS011;37612;51.768;21.590;2022-12-29T08:01:21;6.80;;;3.80;;
51527;SDS011;37612;51.768;21.590;2022-12-29T08:05:24;10.80;;;5.30;;
51527;SDS011;37612;51.768;21.590;2022-12-29T08:09:25;14.10;;;6.50;;
51527;SDS011;37612;51.768;21.590;2022-12-29T08:13:27;9.40;;;4.70;;
51527;SDS011;37612;51.768;21.590;2022-12-29T08:17:28;9.30;;;3.90;;
51527;SDS011;37612;51.768;21.590;2022-12-29T08:21:29;9.60;;;4.60;;
51527;SDS011;37612;51.768;21.590;2022-12-29T08:25:31;7.50;;;4.20;;
51527;SDS011;37612;51.768;21.590;2022-12-29T08:29:32;10.60;;;4.50;;
51527;SDS011;37612;51.768;21.590;2022-12-29T08:33:33;5.10;;;2.60;;
51527;SDS011;37612;51.768;21.590;2022-12-29T08:37:35;7.90;;;3.50;;
51527;SDS011;37612;51.768;21.590;2022-12-29T08:41:36;6.30;;;3.60;;
51527;SDS011;37612;51.768;21.590;2022-12-29T08:45:37;7.60;;;4.70;;
51527;SDS011;37612;51.768;21.590;2022-12-29T08:49:39;8.20;;;4.30;;
51527;SDS011;37612;51.768;21.590;2022-12-29T08:53:40;7.20;;;4.90;;
51527;SDS011;37612;51.768;21.590;2022-12-29T08:57:42;8.40;;;4.90;;
51527;SDS011;37612;51.768;21.590;2022-12-29T09:01:46;9.40;;;4.90;;
51527;SDS011;37612;51.768;21.590;2022-12-29T09:05:48;7.70;;;4.90;;
51527;SDS011;37612;51.768;21.590;2022-12-29T09:09:55;10.00;;;4.80;;
51527;SDS011;37612;51.768;21.590;2022-12-29T09:14:08;9.00;;;4.60;;
51527;SDS011;37612;51.768;21.590;2022-12-29T09:18:11;8.60;;;5.30;;
51527;SDS011;37612;51.768;21.590;2022-12-29T09:22:13;10.30;;;5.30;;
51527;SDS011;37612;51.768;21.590;2022-12-29T09:26:15;8.30;;;3.90;;
51527;SDS011;37612;51.768;21.590;2022-12-29T09:30:16;9.40;;;3.90;;
51527;SDS011;37612;51.768;21.590;2022-12-29T09:34:18;6.40;;;2.20;;
51527;SDS011;37612;51.768;21.590;2022-12-29T09:38:24;10.10;;;4.60;;
51527;SDS011;37612;51.768;21.590;2022-12-29T09:46:57;9.00;;;4.00;;
51527;SDS011;37612;51.768;21.590;2022-12-29T09:51:03;18.30;;;4.50;;
51527;SDS011;37612;51.768;21.590;2022-12-29T09:55:17;8.40;;;4.20;;
51527;SDS011;37612;51.768;21.590;2022-12-29T09:59:24;13.10;;;6.90;;
51527;SDS011;37612;51.768;21.590;2022-12-29T10:03:54;17.30;;;7.50;;
51527;SDS011;37612;51.768;21.590;2022-12-29T10:26:09;7.80;;;4.80;;
51527;SDS011;37612;51.768;21.590;2022-12-29T10:30:16;8.30;;;4.00;;
51527;SDS011;37612;51.768;21.590;2022-12-29T10:38:38;8.80;;;3.90;;
51527;SDS011;37612;51.768;21.590;2022-12-29T10:42:46;9.20;;;3.30;;
51527;SDS011;37612;51.768;21.590;2022-12-29T10:46:57;5.20;;;2.80;;
51527;SDS011;37612;51.768;21.590;2022-12-29T10:51:04;10.10;;;4.60;;
51527;SDS011;37612;51.768;21.590;2022-12-29T10:55:11;7.20;;;3.50;;
51527;SDS011;37612;51.768;21.590;2022-12-29T10:59:21;8.30;;;5.00;;
51527;SDS011;37612;51.768;21.590;2022-12-29T11:08:50;8.70;;;3.90;;
51527;SDS011;37612;51.768;21.590;2022-12-29T11:13:11;9.50;;;4.10;;
51527;SDS011;37612;51.768;21.590;2022-12-29T11:17:52;8.60;;;4.10;;
51527;SDS011;37612;51.768;21.590;2022-12-29T11:26:37;5.60;;;3.10;;
51527;SDS011;37612;51.768;21.590;2022-12-29T11:30:59;5.70;;;2.90;;
51527;SDS011;37612;51.768;21.590;2022-12-29T11:35:04;8.00;;;4.50;;
51527;SDS011;37612;51.768;21.590;2022-12-29T11:39:06;6.90;;;3.20;;
51527;SDS011;37612;51.768;21.590;2022-12-29T11:47:34;8.20;;;4.00;;
51527;SDS011;37612;51.768;21.590;2022-12-29T11:55:52;7.60;;;3.20;;
51527;SDS011;37612;51.768;21.590;2022-12-29T12:00:15;6.30;;;3.10;;
51527;SDS011;37612;51.768;21.590;2022-12-29T12:04:21;8.40;;;3.50;;
51527;SDS011;37612;51.768;21.590;2022-12-29T12:13:12;9.00;;;3.50;;
51527;SDS011;37612;51.768;21.590;2022-12-29T12:17:25;7.90;;;3.70;;
51527;SDS011;37612;51.768;21.590;2022-12-29T12:21:40;6.70;;;3.50;;
51527;SDS011;37612;51.768;21.590;2022-12-29T12:25:47;7.10;;;3.80;;
51527;SDS011;37612;51.768;21.590;2022-12-29T12:30:37;6.70;;;3.30;;
51527;SDS011;37612;51.768;21.590;2022-12-29T12:34:20;8.80;;;3.60;;
51527;SDS011;37612;51.768;21.590;2022-12-29T12:42:53;7.00;;;3.70;;
51527;SDS011;37612;51.768;21.590;2022-12-29T12:51:25;7.00;;;3.50;;
51527;SDS011;37612;51.768;21.590;2022-12-29T13:04:28;10.20;;;4.60;;
51527;SDS011;37612;51.768;21.590;2022-12-29T13:17:46;18.50;;;9.10;;
51527;SDS011;37612;51.768;21.590;2022-12-29T13:26:26;7.90;;;4.90;;
51527;SDS011;37612;51.768;21.590;2022-12-29T13:30:39;11.80;;;4.70;;
51527;SDS011;37612;51.768;21.590;2022-12-29T13:34:46;11.50;;;5.80;;
51527;SDS011;37612;51.768;21.590;2022-12-29T13:39:05;9.40;;;5.20;;
51527;SDS011;37612;51.768;21.590;2022-12-29T13:43:13;12.20;;;5.10;;
51527;SDS011;37612;51.768;21.590;2022-12-29T13:47:33;10.60;;;5.20;;
51527;SDS011;37612;51.768;21.590;2022-12-29T13:51:46;10.70;;;5.70;;
51527;SDS011;37612;51.768;21.590;2022-12-29T13:56:03;11.00;;;6.30;;
51527;SDS011;37612;51.768;21.590;2022-12-29T14:04:21;8.60;;;5.10;;
51527;SDS011;37612;51.768;21.590;2022-12-29T14:08:25;12.50;;;5.70;;
51527;SDS011;37612;51.768;21.590;2022-12-29T14:16:32;11.90;;;6.20;;
51527;SDS011;37612;51.768;21.590;2022-12-29T14:20:35;10.40;;;6.40;;
51527;SDS011;37612;51.768;21.590;2022-12-29T14:24:44;11.70;;;6.20;;
51527;SDS011;37612;51.768;21.590;2022-12-29T14:28:47;11.40;;;6.00;;
51527;SDS011;37612;51.768;21.590;2022-12-29T14:33:23;12.40;;;5.10;;
51527;SDS011;37612;51.768;21.590;2022-12-29T14:37:30;11.40;;;5.10;;
51527;SDS011;37612;51.768;21.590;2022-12-29T14:41:35;11.00;;;7.30;;
51527;SDS011;37612;51.768;21.590;2022-12-29T14:45:40;8.70;;;4.80;;
51527;SDS011;37612;51.768;21.590;2022-12-29T14:49:43;12.00;;;4.60;;
51527;SDS011;37612;51.768;21.590;2022-12-29T14:57:52;12.00;;;5.70;;
51527;SDS011;37612;51.768;21.590;2022-12-29T15:02:01;10.00;;;5.80;;
51527;SDS011;37612;51.768;21.590;2022-12-29T15:06:06;9.40;;;5.30;;
51527;SDS011;37612;51.768;21.590;2022-12-29T15:10:13;12.10;;;5.70;;
51527;SDS011;37612;51.768;21.590;2022-12-29T15:14:32;10.70;;;5.90;;
51527;SDS011;37612;51.768;21.590;2022-12-29T15:18:34;9.80;;;5.70;;
51527;SDS011;37612;51.768;21.590;2022-12-29T15:22:35;13.80;;;6.10;;
51527;SDS011;37612;51.768;21.590;2022-12-29T15:26:38;14.70;;;8.60;;
51527;SDS011;37612;51.768;21.590;2022-12-29T15:31:02;13.70;;;5.80;;
51527;SDS011;37612;51.768;21.590;2022-12-29T15:35:20;12.70;;;7.40;;
51527;SDS011;37612;51.768;21.590;2022-12-29T15:39:29;14.70;;;6.70;;
51527;SDS011;37612;51.768;21.590;2022-12-29T15:47:56;16.10;;;8.10;;
51527;SDS011;37612;51.768;21.590;2022-12-29T15:52:05;11.80;;;6.90;;
51527;SDS011;37612;51.768;21.590;2022-12-29T15:56:09;15.80;;;8.10;;
51527;SDS011;37612;51.768;21.590;2022-12-29T16:00:26;15.40;;;7.80;;
51527;SDS011;37612;51.768;21.590;2022-12-29T16:04:30;16.50;;;8.60;;
51527;SDS011;37612;51.768;21.590;2022-12-29T16:12:37;15.80;;;8.40;;
51527;SDS011;37612;51.768;21.590;2022-12-29T16:16:39;13.60;;;7.60;;
51527;SDS011;37612;51.768;21.590;2022-12-29T16:20:43;17.90;;;8.70;;
51527;SDS011;37612;51.768;21.590;2022-12-29T16:24:44;18.50;;;7.60;;
51527;SDS011;37612;51.768;21.590;2022-12-29T16:28:47;7.70;;;4.00;;
51527;SDS011;37612;51.768;21.590;2022-12-29T16:33:02;16.90;;;7.60;;
51527;SDS011;37612;51.768;21.590;2022-12-29T16:41:28;18.90;;;9.20;;
51527;SDS011;37612;51.768;21.590;2022-12-29T16:49:57;21.00;;;8.30;;
51527;SDS011;37612;51.768;21.590;2022-12-29T16:54:28;19.90;;;8.40;;
51527;SDS011;37612;51.768;21.590;2022-12-29T16:58:34;13.80;;;7.70;;
51527;SDS011;37612;51.768;21.590;2022-12-29T17:02:36;16.40;;;7.80;;
51527;SDS011;37612;51.768;21.590;2022-12-29T17:06:45;18.40;;;9.40;;
51527;SDS011;37612;51.768;21.590;2022-12-29T17:10:46;17.80;;;8.70;;
51527;SDS011;37612;51.768;21.590;2022-12-29T17:19:17;17.50;;;8.10;;
51527;SDS011;37612;51.768;21.590;2022-12-29T17:23:19;18.90;;;9.10;;
51527;SDS011;37612;51.768;21.590;2022-12-29T17:27:22;18.70;;;10.70;;
51527;SDS011;37612;51.768;21.590;2022-12-29T17:31:24;21.40;;;10.30;;
51527;SDS011;37612;51.768;21.590;2022-12-29T17:35:26;19.40;;;9.00;;
51527;SDS011;37612;51.768;21.590;2022-12-29T17:43:29;19.80;;;9.00;;
51527;SDS011;37612;51.768;21.590;2022-12-29T17:47:30;18.80;;;9.50;;
51527;SDS011;37612;51.768;21.590;2022-12-29T17:56:37;17.90;;;9.90;;
51527;SDS011;37612;51.768;21.590;2022-12-29T18:00:38;25.40;;;11.40;;
51527;SDS011;37612;51.768;21.590;2022-12-29T18:04:39;17.80;;;10.40;;
51527;SDS011;37612;51.768;21.590;2022-12-29T18:08:41;18.60;;;9.30;;
51527;SDS011;37612;51.768;21.590;2022-12-29T18:12:44;21.30;;;10.40;;
51527;SDS011;37612;51.768;21.590;2022-12-29T18:16:47;20.20;;;10.90;;
51527;SDS011;37612;51.768;21.590;2022-12-29T18:20:50;21.50;;;11.30;;
51527;SDS011;37612;51.768;21.590;2022-12-29T18:29:40;18.30;;;10.60;;
51527;SDS011;37612;51.768;21.590;2022-12-29T18:33:42;18.70;;;9.90;;
51527;SDS011;37612;51.768;21.590;2022-12-29T18:37:43;22.30;;;10.70;;
51527;SDS011;37612;51.768;21.590;2022-12-29T18:41:44;22.80;;;11.80;;
51527;SDS011;37612;51.768;21.590;2022-12-29T18:45:46;22.30;;;11.40;;
51527;SDS011;37612;51.768;21.590;2022-12-29T18:49:47;24.10;;;10.60;;
51527;SDS011;37612;51.768;21.590;2022-12-29T18:53:49;23.50;;;11.80;;
51527;SDS011;37612;51.768;21.590;2022-12-29T18:57:53;24.60;;;11.50;;
51527;SDS011;37612;51.768;21.590;2022-12-29T19:01:54;25.70;;;12.90;;
51527;SDS011;37612;51.768;21.590;2022-12-29T19:05:56;24.30;;;13.20;;
51527;SDS011;37612;51.768;21.590;2022-12-29T19:09:58;30.20;;;13.80;;
51527;SDS011;37612;51.768;21.590;2022-12-29T19:13:59;27.00;;;12.80;;
51527;SDS011;37612;51.768;21.590;2022-12-29T19:18:02;22.50;;;13.20;;
51527;SDS011;37612;51.768;21.590;2022-12-29T19:22:04;22.20;;;11.80;;
51527;SDS011;37612;51.768;21.590;2022-12-29T19:26:06;28.80;;;12.40;;
51527;SDS011;37612;51.768;21.590;2022-12-29T19:30:08;28.00;;;13.20;;
51527;SDS011;37612;51.768;21.590;2022-12-29T19:34:12;26.70;;;13.30;;
51527;SDS011;37612;51.768;21.590;2022-12-29T19:38:15;26.20;;;13.00;;
51527;SDS011;37612;51.768;21.590;2022-12-29T19:42:16;20.60;;;11.00;;
51527;SDS011;37612;51.768;21.590;2022-12-29T19:46:18;27.10;;;13.90;;
51527;SDS011;37612;51.768;21.590;2022-12-29T19:50:20;34.30;;;16.80;;
51527;SDS011;37612;51.768;21.590;2022-12-29T19:54:21;30.70;;;14.00;;
51527;SDS011;37612;51.768;21.590;2022-12-29T19:58:22;27.70;;;13.50;;
51527;SDS011;37612;51.768;21.590;2022-12-29T20:02:28;27.30;;;13.70;;
51527;SDS011;37612;51.768;21.590;2022-12-29T20:06:31;26.40;;;13.40;;
51527;SDS011;37612;51.768;21.590;2022-12-29T20:10:33;28.80;;;13.80;;
51527;SDS011;37612;51.768;21.590;2022-12-29T20:14:34;25.80;;;14.10;;
51527;SDS011;37612;51.768;21.590;2022-12-29T20:18:35;27.10;;;15.40;;
51527;SDS011;37612;51.768;21.590;2022-12-29T20:22:37;26.70;;;13.40;;
51527;SDS011;37612;51.768;21.590;2022-12-29T20:26:38;29.00;;;13.60;;
51527;SDS011;37612;51.768;21.590;2022-12-29T20:30:39;26.50;;;13.00;;
51527;SDS011;37612;51.768;21.590;2022-12-29T20:34:41;26.10;;;13.30;;
51527;SDS011;37612;51.768;21.590;2022-12-29T20:42:45;27.00;;;13.30;;
51527;SDS011;37612;51.768;21.590;2022-12-29T20:46:47;26.30;;;12.50;;
51527;SDS011;37612;51.768;21.590;2022-12-29T20:50:48;25.00;;;13.50;;
51527;SDS011;37612;51.768;21.590;2022-12-29T20:54:50;28.10;;;14.90;;
51527;SDS011;37612;51.768;21.590;2022-12-29T20:58:51;28.80;;;14.10;;
51527;SDS011;37612;51.768;21.590;2022-12-29T21:02:53;25.70;;;12.80;;
51527;SDS011;37612;51.768;21.590;2022-12-29T21:06:55;27.10;;;13.60;;
51527;SDS011;37612;51.768;21.590;2022-12-29T21:10:56;25.70;;;13.40;;
51527;SDS011;37612;51.768;21.590;2022-12-29T21:15:00;23.70;;;13.10;;
51527;SDS011;37612;51.768;21.590;2022-12-29T21:19:02;25.20;;;13.10;;
51527;SDS011;37612;51.768;21.590;2022-12-29T21:23:04;26.50;;;13.60;;
51527;SDS011;37612;51.768;21.590;2022-12-29T21:27:05;27.40;;;13.10;;
51527;SDS011;37612;51.768;21.590;2022-12-29T21:31:11;25.70;;;12.60;;
51527;SDS011;37612;51.768;21.590;2022-12-29T21:35:38;30.20;;;14.30;;
51527;SDS011;37612;51.768;21.590;2022-12-29T21:39:40;26.60;;;13.60;;
51527;SDS011;37612;51.768;21.590;2022-12-29T21:43:42;27.30;;;15.00;;
51527;SDS011;37612;51.768;21.590;2022-12-29T21:48:04;30.60;;;14.90;;
51527;SDS011;37612;51.768;21.590;2022-12-29T21:52:23;23.10;;;11.60;;
51527;SDS011;37612;51.768;21.590;2022-12-29T21:56:24;26.20;;;12.30;;
51527;SDS011;37612;51.768;21.590;2022-12-29T22:00:26;23.30;;;12.10;;
51527;SDS011;37612;51.768;21.590;2022-12-29T22:04:45;21.90;;;11.80;;
51527;SDS011;37612;51.768;21.590;2022-12-29T22:09:05;25.00;;;12.80;;
51527;SDS011;37612;51.768;21.590;2022-12-29T22:13:25;19.50;;;12.30;;
51527;SDS011;37612;51.768;21.590;2022-12-29T22:17:26;30.40;;;12.30;;
51527;SDS011;37612;51.768;21.590;2022-12-29T22:21:27;19.90;;;11.00;;
51527;SDS011;37612;51.768;21.590;2022-12-29T22:25:28;28.10;;;12.20;;
51527;SDS011;37612;51.768;21.590;2022-12-29T22:29:30;25.10;;;12.30;;
51527;SDS011;37612;51.768;21.590;2022-12-29T22:33:31;29.30;;;13.30;;
51527;SDS011;37612;51.768;21.590;2022-12-29T22:37:33;21.60;;;11.90;;
51527;SDS011;37612;51.768;21.590;2022-12-29T22:41:35;19.20;;;9.60;;
51527;SDS011;37612;51.768;21.590;2022-12-29T22:45:37;21.80;;;11.60;;
51527;SDS011;37612;51.768;21.590;2022-12-29T22:49:38;26.50;;;12.20;;
51527;SDS011;37612;51.768;21.590;2022-12-29T22:53:40;22.10;;;11.20;;
51527;SDS011;37612;51.768;21.590;2022-12-29T22:57:41;19.70;;;11.90;;
51527;SDS011;37612;51.768;21.590;2022-12-29T23:01:42;28.60;;;12.70;;
51527;SDS011;37612;51.768;21.590;2022-12-29T23:05:53;23.20;;;11.40;;
51527;SDS011;37612;51.768;21.590;2022-12-29T23:09:55;25.30;;;13.40;;
51527;SDS011;37612;51.768;21.590;2022-12-29T23:13:57;23.90;;;12.40;;
51527;SDS011;37612;51.768;21.590;2022-12-29T23:17:58;25.30;;;13.40;;
51527;SDS011;37612;51.768;21.590;2022-12-29T23:22:00;27.60;;;12.80;;
51527;SDS011;37612;51.768;21.590;2022-12-29T23:26:01;25.80;;;13.20;;
51527;SDS011;37612;51.768;21.590;2022-12-29T23:30:03;29.30;;;12.90;;
51527;SDS011;37612;51.768;21.590;2022-12-29T23:34:05;22.70;;;10.90;;
51527;SDS011;37612;51.768;21.590;2022-12-29T23:42:08;25.30;;;12.70;;
51527;SDS011;37612;51.768;21.590;2022-12-29T23:50:16;24.90;;;12.70;;
51527;SDS011;37612;51.768;21.590;2022-12-29T23:54:18;25.00;;;12.80;;
51527;SDS011;37612;51.768;21.590;2022-12-29T23:58:19;24.00;;;11.70;;
